createdAt,value
2018-06-11T07:05:58.193Z,22.54
2018-06-11T07:06:58.176Z,22.84
2018-06-11T07:07:58.178Z,23.10
2018-06-11T07:08:58.174Z,23.18
2018-06-11T07:09:58.183Z,23.08
2018-06-11T07:10:58.229Z,22.88
2018-06-11T07:11:58.188Z,22.43
2018-06-11T07:12:58.191Z,22.17
2018-06-11T07:13:58.197Z,22.04
2018-06-11T07:14:58.199Z,21.98
2018-06-11T07:15:58.205Z,21.98
2018-06-11T07:16:58.211Z,21.89
2018-06-11T07:17:58.212Z,21.82
2018-06-11T07:18:58.221Z,21.77
2018-06-11T07:19:58.226Z,21.79
2018-06-11T07:20:58.230Z,21.75
2018-06-11T07:21:58.238Z,21.83
2018-06-11T07:22:58.245Z,21.91
2018-06-11T07:23:58.248Z,21.89
2018-06-11T07:24:58.255Z,21.76
2018-06-11T07:25:58.261Z,21.82
2018-06-11T07:26:58.264Z,21.76
2018-06-11T07:27:58.271Z,21.70
2018-06-11T07:28:58.277Z,21.69
2018-06-11T07:29:58.286Z,21.73
2018-06-11T07:30:58.293Z,21.73
2018-06-11T07:31:58.297Z,21.91
2018-06-11T07:32:58.304Z,22.02
2018-06-11T07:33:58.311Z,21.91
2018-06-11T07:34:58.367Z,21.98
2018-06-11T07:35:58.322Z,21.82
2018-06-11T07:36:58.336Z,21.69
2018-06-11T07:37:58.337Z,21.70
2018-06-11T07:38:58.343Z,21.79
2018-06-11T07:39:58.351Z,21.92
2018-06-11T07:40:58.393Z,21.88
2018-06-11T07:41:58.361Z,21.92
2018-06-11T07:42:58.368Z,22.08
2018-06-11T07:43:58.376Z,21.92
2018-06-11T07:44:58.381Z,22.10
2018-06-11T07:45:58.390Z,22.08
2018-06-11T07:46:58.390Z,22.11
2018-06-11T07:47:58.435Z,22.02
2018-06-11T07:48:58.411Z,21.88
2018-06-11T07:49:58.416Z,21.92
2018-06-11T07:50:58.425Z,21.69
2018-06-11T07:51:58.428Z,21.57
2018-06-11T07:52:58.436Z,21.52
2018-06-11T07:53:58.443Z,21.55
2018-06-11T07:54:58.448Z,21.58
2018-06-11T07:55:58.457Z,21.61
2018-06-11T07:56:58.462Z,21.60
2018-06-11T07:57:58.470Z,21.42
2018-06-11T07:58:58.476Z,21.45
2018-06-11T07:59:58.513Z,21.50
2018-06-11T08:00:58.490Z,21.39
2018-06-11T08:01:58.496Z,21.42
2018-06-11T08:02:58.502Z,21.39
2018-06-11T08:03:58.513Z,21.25
2018-06-11T08:04:58.518Z,21.17
2018-06-11T08:05:58.524Z,21.21
2018-06-11T08:06:58.530Z,21.25
2018-06-11T08:07:58.538Z,21.24
2018-06-11T08:08:58.549Z,21.21
2018-06-11T08:09:58.550Z,21.21
2018-06-11T08:10:58.556Z,21.21
2018-06-11T08:11:58.562Z,21.27
2018-06-11T08:12:58.563Z,21.30
2018-06-11T08:13:58.576Z,21.36
2018-06-11T08:14:58.581Z,21.32
2018-06-11T08:15:58.587Z,21.30
2018-06-11T08:16:58.594Z,21.32
2018-06-11T08:17:58.601Z,21.30
2018-06-11T08:18:58.604Z,21.39
2018-06-11T08:19:58.613Z,21.46
2018-06-11T08:20:58.618Z,21.46
2018-06-11T08:21:58.625Z,21.40
2018-06-11T08:22:58.628Z,21.36
2018-06-11T08:23:58.638Z,21.51
2018-06-11T08:24:58.642Z,21.40
2018-06-11T08:25:58.647Z,21.52
2018-06-11T08:26:58.656Z,21.55
2018-06-11T08:27:58.661Z,21.39
2018-06-11T08:28:58.670Z,21.45
2018-06-11T08:29:58.675Z,21.45
2018-06-11T08:30:58.684Z,21.39
2018-06-11T08:31:58.687Z,21.40
2018-06-11T08:32:58.694Z,21.29
2018-06-11T08:33:58.706Z,21.25
2018-06-11T08:34:58.705Z,21.18
2018-06-11T08:35:58.713Z,21.24
2018-06-11T08:36:58.713Z,21.24
2018-06-11T08:37:58.720Z,21.36
2018-06-11T08:38:58.731Z,21.35
2018-06-11T08:39:58.736Z,21.48
2018-06-11T08:40:58.748Z,21.58
2018-06-11T08:41:58.749Z,21.67
2018-06-11T08:42:58.757Z,21.75
2018-06-11T08:43:58.765Z,21.80
2018-06-11T08:44:58.769Z,21.89
2018-06-11T08:45:58.777Z,21.85
2018-06-11T08:46:58.778Z,22.07
2018-06-11T08:47:58.795Z,22.06
2018-06-11T08:48:58.795Z,21.96
2018-06-11T08:49:58.805Z,22.06
2018-06-11T08:50:58.802Z,22.00
2018-06-11T08:51:58.814Z,22.10
2018-06-11T08:52:58.823Z,22.08
2018-06-11T08:53:58.829Z,22.20
2018-06-11T08:54:58.835Z,22.20
2018-06-11T08:55:58.841Z,22.23
2018-06-11T08:56:58.850Z,22.29
2018-06-11T08:57:58.855Z,22.20
2018-06-11T08:58:58.859Z,22.17
2018-06-11T08:59:58.882Z,22.08
2018-06-11T09:00:58.895Z,22.17
2018-06-11T09:01:58.884Z,22.23
2018-06-11T09:02:58.890Z,22.04
2018-06-11T09:03:58.899Z,21.89
2018-06-11T09:04:58.904Z,21.85
2018-06-11T09:05:58.912Z,21.82
2018-06-11T09:06:58.969Z,21.73
2018-06-11T09:07:58.924Z,21.93
2018-06-11T09:08:58.932Z,21.98
2018-06-11T09:09:58.933Z,21.99
2018-06-11T09:10:58.946Z,22.17
2018-06-11T09:11:58.951Z,22.28
2018-06-11T09:12:58.959Z,22.35
2018-06-11T09:13:58.967Z,22.32
2018-06-11T09:14:59.016Z,22.41
2018-06-11T09:15:58.976Z,22.43
2018-06-11T09:16:58.991Z,22.48
2018-06-11T09:17:59.071Z,22.65
2018-06-11T09:18:59.001Z,22.68
2018-06-11T09:19:59.008Z,22.66
2018-06-11T09:20:59.016Z,22.62
2018-06-11T09:21:59.017Z,22.63
2018-06-11T09:22:59.032Z,22.66
2018-06-11T09:23:59.041Z,22.66
2018-06-11T09:24:59.067Z,22.66
2018-06-11T09:25:59.060Z,22.76
2018-06-11T09:26:59.061Z,22.91
2018-06-11T09:27:59.067Z,22.78
2018-06-11T09:28:59.075Z,23.02
2018-06-11T09:29:59.083Z,23.17
2018-06-11T09:30:59.107Z,23.17
2018-06-11T09:31:59.099Z,23.47
2018-06-11T09:32:59.107Z,23.73
2018-06-11T09:33:59.114Z,23.93
2018-06-11T09:34:59.123Z,24.01
2018-06-11T09:35:59.133Z,24.18
2018-06-11T09:36:59.140Z,24.11
2018-06-11T09:37:59.146Z,23.96
2018-06-11T09:38:59.153Z,24.03
2018-06-11T09:39:59.161Z,24.23
2018-06-11T09:40:59.166Z,24.33
2018-06-11T09:41:59.183Z,24.48
2018-06-11T09:42:59.182Z,24.32
2018-06-11T09:43:59.249Z,24.32
2018-06-11T09:44:59.206Z,24.26
2018-06-11T09:45:59.216Z,24.38
2018-06-11T09:46:59.226Z,24.50
2018-06-11T09:47:59.235Z,24.51
2018-06-11T09:48:59.253Z,24.63
2018-06-11T09:49:59.252Z,24.74
2018-06-11T09:50:59.260Z,24.78
2018-06-11T09:51:59.268Z,24.77
2018-06-11T09:52:59.274Z,24.43
2018-06-11T09:53:59.280Z,24.26
2018-06-11T09:54:59.296Z,24.23
2018-06-11T09:55:59.309Z,24.26
2018-06-11T09:56:59.314Z,24.35
2018-06-11T09:57:59.326Z,24.48
2018-06-11T09:58:59.333Z,24.50
2018-06-11T09:59:59.342Z,24.53
2018-06-11T10:00:59.354Z,24.39
2018-06-11T10:01:59.362Z,24.32
2018-06-11T10:02:59.364Z,24.47
2018-06-11T10:03:59.374Z,24.39
2018-06-11T10:04:59.390Z,24.47
2018-06-11T10:05:59.393Z,24.39
2018-06-11T10:06:59.408Z,24.24
2018-06-11T10:07:59.419Z,24.42
2018-06-11T10:08:59.429Z,24.47
2018-06-11T10:09:59.437Z,24.55
2018-06-11T10:10:59.444Z,24.61
2018-06-11T10:11:59.454Z,24.69
2018-06-11T10:12:59.460Z,25.06
2018-06-11T10:13:59.473Z,24.98
2018-06-11T10:14:59.479Z,25.14
2018-06-11T10:15:59.488Z,24.70
2018-06-11T10:16:59.497Z,24.53
2018-06-11T10:17:59.509Z,24.45
2018-06-11T10:18:59.523Z,24.17
2018-06-11T10:19:59.530Z,24.21
2018-06-11T10:20:59.538Z,24.20
2018-06-11T10:21:59.546Z,24.24
2018-06-11T10:22:59.549Z,24.40
2018-06-11T10:23:59.562Z,24.50
2018-06-11T10:24:59.574Z,24.43
2018-06-11T10:25:59.585Z,24.48
2018-06-11T10:26:59.591Z,24.65
2018-06-11T10:27:59.601Z,24.61
2018-06-11T10:28:59.605Z,24.43
2018-06-11T10:29:59.618Z,24.38
2018-06-11T10:30:59.628Z,24.40
2018-06-11T10:31:59.638Z,24.53
2018-06-11T10:32:59.644Z,24.77
2018-06-11T10:33:59.656Z,24.70
2018-06-11T10:34:59.670Z,24.63
2018-06-11T10:35:59.675Z,24.53
2018-06-11T10:36:59.759Z,24.51
2018-06-11T10:37:59.693Z,24.57
2018-06-11T10:38:59.702Z,24.55
2018-06-11T10:39:59.716Z,24.77
2018-06-11T10:40:59.720Z,24.96
2018-06-11T10:41:59.730Z,25.08
2018-06-11T10:42:59.736Z,25.04
2018-06-11T10:43:59.746Z,25.16
2018-06-11T10:44:59.756Z,25.28
2018-06-11T10:45:59.761Z,25.22
2018-06-11T10:46:59.775Z,25.28
2018-06-11T10:47:59.786Z,25.29
2018-06-11T10:48:59.793Z,25.29
2018-06-11T10:49:59.807Z,25.32
2018-06-11T10:50:59.812Z,25.38
2018-06-11T10:51:59.824Z,25.51
2018-06-11T10:52:59.844Z,25.54
2018-06-11T10:53:59.842Z,25.62
2018-06-11T10:54:59.850Z,25.69
2018-06-11T10:55:59.861Z,25.62
2018-06-11T10:56:59.873Z,25.72
2018-06-11T10:57:59.918Z,25.75
2018-06-11T10:58:59.890Z,25.78
2018-06-11T10:59:59.902Z,25.48
2018-06-11T11:00:59.916Z,25.23
2018-06-11T11:01:59.915Z,25.14
2018-06-11T11:02:59.929Z,24.98
2018-06-11T11:03:59.943Z,24.93
2018-06-11T11:04:59.941Z,25.01
2018-06-11T11:05:59.959Z,25.26
2018-06-11T11:06:59.968Z,25.38
2018-06-11T11:07:59.978Z,25.53
2018-06-11T11:08:59.989Z,25.68
2018-06-11T11:10:00.000Z,25.90
2018-06-11T11:11:00.027Z,26.09
2018-06-11T11:12:00.018Z,25.50
2018-06-11T11:13:00.027Z,25.53
2018-06-11T11:14:00.037Z,25.53
2018-06-11T11:15:00.052Z,25.51
2018-06-11T11:16:00.051Z,25.63
2018-06-11T11:17:00.069Z,25.66
2018-06-11T11:18:00.077Z,25.62
2018-06-11T11:19:00.088Z,25.69
2018-06-11T11:20:00.097Z,25.51
2018-06-11T11:21:00.109Z,25.50
2018-06-11T11:22:00.118Z,25.50
2018-06-11T11:23:00.142Z,25.18
2018-06-11T11:24:00.182Z,25.31
2018-06-11T11:25:00.146Z,25.36
2018-06-11T11:26:00.158Z,25.31
2018-06-11T11:27:00.167Z,25.36
2018-06-11T11:28:00.172Z,25.31
2018-06-11T11:29:00.181Z,25.28
2018-06-11T11:30:00.208Z,25.18
2018-06-11T11:31:00.203Z,25.17
2018-06-11T11:32:00.213Z,25.11
2018-06-11T11:33:00.226Z,24.78
2018-06-11T11:34:00.233Z,24.86
2018-06-11T11:35:00.243Z,24.92
2018-06-11T11:36:00.253Z,25.10
2018-06-11T11:37:00.262Z,25.21
2018-06-11T11:38:00.274Z,25.31
2018-06-11T11:39:00.278Z,25.50
2018-06-11T11:40:00.289Z,25.58
2018-06-11T11:41:00.305Z,25.69
2018-06-11T11:42:00.315Z,25.78
2018-06-11T11:43:00.318Z,25.33
2018-06-11T11:44:00.333Z,25.51
2018-06-11T11:45:00.336Z,25.41
2018-06-11T11:46:00.347Z,25.44
2018-06-11T11:47:00.356Z,25.55
2018-06-11T11:48:00.367Z,25.62
2018-06-11T11:49:00.376Z,25.81
2018-06-11T11:50:00.387Z,25.81
2018-06-11T11:51:00.397Z,25.84
2018-06-11T11:52:00.400Z,25.90
2018-06-11T11:53:00.414Z,26.05
2018-06-11T11:54:00.420Z,26.31
2018-06-11T11:55:00.434Z,26.34
2018-06-11T11:56:00.443Z,26.60
2018-06-11T11:57:00.453Z,26.59
2018-06-11T11:58:00.465Z,26.60
2018-06-11T11:59:00.464Z,26.63
2018-06-11T12:00:00.483Z,26.52
2018-06-11T12:01:00.496Z,26.52
2018-06-11T12:02:00.503Z,26.58
2018-06-11T12:03:00.511Z,26.66
2018-06-11T12:04:00.541Z,26.58
2018-06-11T12:05:00.533Z,26.47
2018-06-11T12:06:00.541Z,26.53
2018-06-11T12:07:00.553Z,26.38
2018-06-11T12:08:00.564Z,26.34
2018-06-11T12:09:00.572Z,26.48
2018-06-11T12:10:00.580Z,26.55
2018-06-11T12:11:00.594Z,26.70
2018-06-11T12:12:00.604Z,26.26
2018-06-11T12:13:00.613Z,26.09
2018-06-11T12:14:00.626Z,25.96
2018-06-11T12:15:00.632Z,25.91
2018-06-11T12:16:00.644Z,25.99
2018-06-11T12:17:00.653Z,25.95
2018-06-11T12:18:00.665Z,25.93
2018-06-11T12:19:00.715Z,25.95
2018-06-11T12:20:00.681Z,25.96
2018-06-11T12:21:00.694Z,25.83
2018-06-11T12:22:00.710Z,25.78
2018-06-11T12:23:00.716Z,25.51
2018-06-11T12:24:00.726Z,25.41
2018-06-11T12:25:00.734Z,25.62
2018-06-11T12:26:00.744Z,25.48
2018-06-11T12:27:00.754Z,25.84
2018-06-11T12:28:00.761Z,26.03
2018-06-11T12:29:00.777Z,26.18
2018-06-11T12:30:00.786Z,26.38
2018-06-11T12:31:00.794Z,26.07
2018-06-11T12:32:00.805Z,25.99
2018-06-11T12:33:00.821Z,26.07
2018-06-11T12:34:00.824Z,26.23
2018-06-11T12:35:00.835Z,26.33
2018-06-11T12:36:00.842Z,26.38
2018-06-11T12:37:00.856Z,26.45
2018-06-11T12:38:00.868Z,26.56
2018-06-11T12:39:00.874Z,26.53
2018-06-11T12:40:00.885Z,26.52
2018-06-11T12:41:00.895Z,26.55
2018-06-11T12:42:00.904Z,26.40
2018-06-11T12:43:00.910Z,26.28
2018-06-11T12:44:00.929Z,26.25
2018-06-11T12:45:00.938Z,26.00
2018-06-11T12:46:00.946Z,26.02
2018-06-11T12:47:00.954Z,26.33
2018-06-11T12:48:00.968Z,26.63
2018-06-11T12:49:00.975Z,26.88
2018-06-11T12:50:00.988Z,27.03
2018-06-11T12:51:00.999Z,27.14
2018-06-11T12:52:01.010Z,27.08
2018-06-11T12:53:01.021Z,26.95
2018-06-11T12:54:01.030Z,27.12
2018-06-11T12:55:01.044Z,27.15
2018-06-11T12:56:01.049Z,26.96
2018-06-11T12:57:01.065Z,26.97
2018-06-11T12:58:01.073Z,27.11
2018-06-11T12:59:01.081Z,27.08
2018-06-11T13:00:01.093Z,27.02
2018-06-11T13:01:01.101Z,27.21
2018-06-11T13:02:01.112Z,27.25
2018-06-11T13:03:01.124Z,27.07
2018-06-11T13:04:01.142Z,27.21
2018-06-11T13:05:01.146Z,27.22
2018-06-11T13:06:01.157Z,27.26
2018-06-11T13:07:01.168Z,27.15
2018-06-11T13:08:01.180Z,26.96
2018-06-11T13:09:01.191Z,26.93
2018-06-11T13:10:01.202Z,26.70
2018-06-11T13:11:01.209Z,26.44
2018-06-11T13:12:01.218Z,26.40
2018-06-11T13:13:01.227Z,26.34
2018-06-11T13:14:01.305Z,26.58
2018-06-11T13:15:01.255Z,26.73
2018-06-11T13:16:01.266Z,26.84
2018-06-11T13:17:01.275Z,26.97
2018-06-11T13:18:01.286Z,27.18
2018-06-11T13:19:01.295Z,27.22
2018-06-11T13:20:01.302Z,27.42
2018-06-11T13:21:01.322Z,27.11
2018-06-11T13:22:01.353Z,27.12
2018-06-11T13:23:01.336Z,27.02
2018-06-11T13:24:01.349Z,27.08
2018-06-11T13:25:01.360Z,27.17
2018-06-11T13:26:01.367Z,27.22
2018-06-11T13:27:01.380Z,27.36
2018-06-11T13:28:01.396Z,27.36
2018-06-11T13:29:01.408Z,27.20
2018-06-11T13:30:01.415Z,27.07
2018-06-11T13:31:01.427Z,27.18
2018-06-11T13:32:01.436Z,27.36
2018-06-11T13:33:01.448Z,27.44
2018-06-11T13:34:01.458Z,27.39
2018-06-11T13:35:01.471Z,27.36
2018-06-11T13:36:01.482Z,27.36
2018-06-11T13:37:01.534Z,27.36
2018-06-11T13:38:01.504Z,27.48
2018-06-11T13:39:01.512Z,27.44
2018-06-11T13:40:01.525Z,27.36
2018-06-11T13:41:01.534Z,27.32
2018-06-11T13:42:01.548Z,27.47
2018-06-11T13:43:01.579Z,27.55
2018-06-11T13:44:01.577Z,27.40
2018-06-11T13:45:01.580Z,27.47
2018-06-11T13:46:01.589Z,27.51
2018-06-11T13:47:01.599Z,27.55
2018-06-11T13:48:01.605Z,27.55
2018-06-11T13:49:01.623Z,27.51
2018-06-11T13:50:01.635Z,27.42
2018-06-11T13:51:01.648Z,27.18
2018-06-11T13:52:01.715Z,27.18
2018-06-11T13:53:01.669Z,27.15
2018-06-11T13:54:01.682Z,27.14
2018-06-11T13:55:01.692Z,27.25
2018-06-11T13:56:01.702Z,27.21
2018-06-11T13:57:01.767Z,27.08
2018-06-11T13:58:01.726Z,26.99
2018-06-11T13:59:01.745Z,27.00
2018-06-11T14:00:01.748Z,27.27
2018-06-11T14:01:01.757Z,27.54
2018-06-11T14:02:01.769Z,27.85
2018-06-11T14:03:01.781Z,27.92
2018-06-11T14:04:01.789Z,28.10
2018-06-11T14:05:01.804Z,28.01
2018-06-11T14:06:01.810Z,27.89
2018-06-11T14:07:01.824Z,27.82
2018-06-11T14:08:01.852Z,27.47
2018-06-11T14:09:01.850Z,27.40
2018-06-11T14:10:01.860Z,27.36
2018-06-11T14:11:01.875Z,27.58
2018-06-11T14:12:01.909Z,27.63
2018-06-11T14:13:01.894Z,27.77
2018-06-11T14:14:01.906Z,27.71
2018-06-11T14:15:01.919Z,27.92
2018-06-11T14:16:01.931Z,27.95
2018-06-11T14:17:01.939Z,28.15
2018-06-11T14:18:01.954Z,28.41
2018-06-11T14:19:01.968Z,28.37
2018-06-11T14:20:01.983Z,28.33
2018-06-11T14:21:01.991Z,28.37
2018-06-11T14:22:02.006Z,28.45
2018-06-11T14:23:02.015Z,28.54
2018-06-11T14:24:02.042Z,28.57
2018-06-11T14:25:02.090Z,28.60
2018-06-11T14:26:02.053Z,28.41
2018-06-11T14:27:02.064Z,28.32
2018-06-11T14:28:02.077Z,28.10
2018-06-11T14:29:02.090Z,28.04
2018-06-11T14:30:02.102Z,28.27
2018-06-11T14:31:02.162Z,28.45
2018-06-11T14:32:02.133Z,28.39
2018-06-11T14:33:02.142Z,28.11
2018-06-11T14:34:02.153Z,27.98
2018-06-11T14:35:02.166Z,27.73
2018-06-11T14:36:02.178Z,27.58
2018-06-11T14:37:02.184Z,27.29
2018-06-11T14:38:02.202Z,27.37
2018-06-11T14:39:02.213Z,27.20
2018-06-11T14:40:02.228Z,27.22
2018-06-11T14:41:02.248Z,27.05
2018-06-11T14:42:02.255Z,26.95
2018-06-11T14:43:02.260Z,26.90
2018-06-11T14:44:02.274Z,26.97
2018-06-11T14:45:02.283Z,27.36
2018-06-11T14:46:02.295Z,27.75
2018-06-11T14:47:02.308Z,27.86
2018-06-11T14:48:02.319Z,28.11
2018-06-11T14:49:02.331Z,28.12
2018-06-11T14:50:02.337Z,27.78
2018-06-11T14:51:02.381Z,27.63
2018-06-11T14:52:02.360Z,27.71
2018-06-11T14:53:02.377Z,27.71
2018-06-11T14:54:02.389Z,27.51
2018-06-11T14:55:02.403Z,27.54
2018-06-11T14:56:02.410Z,27.51
2018-06-11T14:57:02.419Z,27.64
2018-06-11T14:58:02.458Z,27.47
2018-06-11T14:59:02.446Z,27.11
2018-06-11T15:00:02.458Z,26.97
2018-06-11T15:01:02.470Z,27.17
2018-06-11T15:02:02.515Z,27.15
2018-06-11T15:03:02.506Z,27.37
2018-06-11T15:04:02.513Z,27.37
2018-06-11T15:05:02.519Z,27.64
2018-06-11T15:06:02.529Z,27.78
2018-06-11T15:07:02.537Z,27.70
2018-06-11T15:08:02.549Z,27.58
2018-06-11T15:09:02.565Z,27.55
2018-06-11T15:10:02.568Z,27.44
2018-06-11T15:11:02.582Z,27.12
2018-06-11T15:12:02.593Z,27.08
2018-06-11T15:13:02.602Z,26.88
2018-06-11T15:14:02.618Z,26.77
2018-06-11T15:15:02.626Z,26.83
2018-06-11T15:16:02.637Z,26.81
2018-06-11T15:17:02.652Z,26.90
2018-06-11T15:18:02.664Z,26.96
2018-06-11T15:19:02.673Z,26.85
2018-06-11T15:20:02.683Z,26.93
2018-06-11T15:21:02.696Z,27.00
2018-06-11T15:22:02.701Z,26.96
2018-06-11T15:23:02.709Z,26.84
2018-06-11T15:24:02.718Z,26.81
2018-06-11T15:25:02.737Z,26.74
2018-06-11T15:26:02.744Z,26.53
2018-06-11T15:27:02.756Z,26.59
2018-06-11T15:28:02.768Z,26.53
2018-06-11T15:29:02.784Z,26.43
2018-06-11T15:30:02.788Z,26.45
2018-06-11T15:31:02.800Z,26.56
2018-06-11T15:32:02.808Z,26.60
2018-06-11T15:33:02.823Z,26.68
2018-06-11T15:34:02.830Z,26.59
2018-06-11T15:35:02.858Z,26.74
2018-06-11T15:36:02.848Z,26.74
2018-06-11T15:37:02.873Z,26.71
2018-06-11T15:38:02.865Z,26.74
2018-06-11T15:39:02.881Z,26.68
2018-06-11T15:40:02.889Z,26.74
2018-06-11T15:41:02.896Z,26.85
2018-06-11T15:42:02.910Z,26.99
2018-06-11T15:43:02.917Z,27.10
2018-06-11T15:44:02.931Z,26.95
2018-06-11T15:45:02.936Z,26.96
2018-06-11T15:46:02.954Z,26.88
2018-06-11T15:47:02.957Z,26.77
2018-06-11T15:48:02.971Z,26.73
2018-06-11T15:49:02.985Z,26.56
2018-06-11T15:50:02.994Z,26.48
2018-06-11T15:51:03.001Z,26.47
2018-06-11T15:52:03.010Z,26.41
2018-06-11T15:53:03.021Z,26.51
2018-06-11T15:54:03.032Z,26.45
2018-06-11T15:55:03.038Z,26.52
2018-06-11T15:56:03.050Z,26.26
2018-06-11T15:57:03.065Z,26.33
2018-06-11T15:58:03.068Z,26.21
2018-06-11T15:59:03.074Z,26.22
2018-06-11T16:00:03.091Z,26.09
2018-06-11T16:01:03.093Z,25.95
2018-06-11T16:02:03.110Z,26.02
2018-06-11T16:03:03.118Z,26.00
2018-06-11T16:04:03.120Z,26.07
2018-06-11T16:05:03.151Z,26.15
2018-06-11T16:06:03.143Z,26.19
2018-06-11T16:07:03.154Z,26.18
2018-06-11T16:08:03.176Z,26.03
2018-06-11T16:09:03.177Z,26.21
2018-06-11T16:10:03.185Z,26.18
2018-06-11T16:11:03.192Z,26.23
2018-06-11T16:12:03.241Z,26.16
2018-06-11T16:13:03.211Z,26.03
2018-06-11T16:14:03.225Z,26.10
2018-06-11T16:15:03.233Z,26.05
2018-06-11T16:16:03.242Z,26.09
2018-06-11T16:17:03.250Z,25.96
2018-06-11T16:18:03.263Z,25.77
2018-06-11T16:19:03.272Z,25.72
2018-06-11T16:20:03.278Z,25.62
2018-06-11T16:21:03.282Z,25.54
2018-06-11T16:22:03.299Z,25.63
2018-06-11T16:23:03.306Z,25.44
2018-06-11T16:24:03.314Z,25.38
2018-06-11T16:25:03.324Z,25.33
2018-06-11T16:26:03.332Z,25.16
2018-06-11T16:27:03.341Z,25.18
2018-06-11T16:28:03.350Z,25.16
2018-06-11T16:29:03.359Z,25.16
2018-06-11T16:30:03.371Z,25.14
2018-06-11T16:31:03.381Z,25.18
2018-06-11T16:32:03.387Z,25.29
2018-06-11T16:33:03.400Z,25.40
2018-06-11T16:34:03.403Z,25.43
2018-06-11T16:35:03.410Z,25.40
2018-06-11T16:36:03.429Z,25.50
2018-06-11T16:37:03.457Z,25.51
2018-06-11T16:38:03.453Z,25.50
2018-06-11T16:39:03.451Z,25.51
2018-06-11T16:40:03.472Z,25.38
2018-06-11T16:41:03.463Z,25.38
2018-06-11T16:42:03.498Z,25.40
2018-06-11T16:43:03.539Z,25.32
2018-06-11T16:44:03.491Z,25.25
2018-06-11T16:45:03.499Z,25.22
2018-06-11T16:46:03.507Z,25.16
2018-06-11T16:47:03.518Z,25.17
2018-06-11T16:48:03.523Z,25.14
2018-06-11T16:49:03.541Z,24.96
2018-06-11T16:50:03.542Z,24.98
2018-06-11T16:51:03.548Z,24.93
2018-06-11T16:52:03.556Z,24.98
2018-06-11T16:53:03.564Z,24.93
2018-06-11T16:54:03.572Z,25.01
2018-06-11T16:55:03.581Z,25.17
2018-06-11T16:56:03.584Z,25.17
2018-06-11T16:57:03.597Z,25.16
2018-06-11T16:58:03.607Z,25.14
2018-06-11T16:59:03.618Z,25.01
2018-06-11T17:00:03.625Z,25.04
2018-06-11T17:01:03.637Z,24.95
2018-06-11T17:02:03.643Z,24.86
2018-06-11T17:03:03.645Z,24.80
2018-06-11T17:04:03.656Z,24.76
2018-06-11T17:05:03.669Z,24.69
2018-06-11T17:06:03.674Z,24.77
2018-06-11T17:07:03.683Z,24.80
2018-06-11T17:08:03.696Z,24.58
2018-06-11T17:09:03.700Z,24.63
2018-06-11T17:10:03.701Z,24.74
2018-06-11T17:11:03.716Z,24.68
2018-06-11T17:12:03.740Z,24.65
2018-06-11T17:13:03.733Z,24.63
2018-06-11T17:14:03.740Z,24.61
2018-06-11T17:15:03.743Z,24.47
2018-06-11T17:16:03.760Z,24.50
2018-06-11T17:17:03.763Z,24.47
2018-06-11T17:18:03.772Z,24.42
2018-06-11T17:19:03.783Z,24.39
2018-06-11T17:20:03.789Z,24.35
2018-06-11T17:21:03.803Z,24.29
2018-06-11T17:22:03.805Z,24.36
2018-06-11T17:23:03.809Z,24.28
2018-06-11T17:24:03.822Z,24.28
2018-06-11T17:25:03.822Z,24.35
2018-06-11T17:26:03.839Z,24.33
2018-06-11T17:27:03.853Z,24.26
2018-06-11T17:28:03.846Z,24.36
2018-06-11T17:29:03.880Z,24.20
2018-06-11T17:30:03.865Z,24.32
2018-06-11T17:31:03.878Z,24.32
2018-06-11T17:32:03.889Z,24.35
2018-06-11T17:33:03.892Z,24.26
2018-06-11T17:34:03.901Z,24.26
2018-06-11T17:35:03.909Z,24.32
2018-06-11T17:36:03.914Z,24.30
2018-06-11T17:37:03.918Z,24.26
2018-06-11T17:38:03.930Z,24.42
2018-06-11T17:39:03.936Z,24.26
2018-06-11T17:40:03.944Z,24.32
2018-06-11T17:41:03.953Z,24.23
2018-06-11T17:42:03.962Z,24.16
2018-06-11T17:43:03.970Z,23.99
2018-06-11T17:44:03.981Z,24.01
2018-06-11T17:45:03.984Z,23.87
2018-06-11T17:46:03.994Z,24.05
2018-06-11T17:47:03.999Z,23.91
2018-06-11T17:48:04.005Z,23.96
2018-06-11T17:49:04.014Z,23.92
2018-06-11T17:50:04.024Z,23.95
2018-06-11T17:51:04.029Z,23.92
2018-06-11T17:52:04.044Z,23.88
2018-06-11T17:53:04.050Z,23.95
2018-06-11T17:54:04.054Z,23.77
2018-06-11T17:55:04.058Z,23.83
2018-06-11T17:56:04.068Z,23.78
2018-06-11T17:57:04.080Z,23.71
2018-06-11T17:58:04.080Z,23.73
2018-06-11T17:59:04.114Z,23.68
2018-06-11T18:00:04.096Z,23.63
2018-06-11T18:01:04.105Z,23.63
2018-06-11T18:02:04.112Z,23.58
2018-06-11T18:03:04.118Z,23.58
2018-06-11T18:04:04.127Z,23.65
2018-06-11T18:05:04.131Z,23.61
2018-06-11T18:06:04.146Z,23.56
2018-06-11T18:07:04.149Z,23.51
2018-06-11T18:08:04.148Z,23.48
2018-06-11T18:09:04.155Z,23.47
2018-06-11T18:10:04.163Z,23.41
2018-06-11T18:11:04.171Z,23.36
2018-06-11T18:12:04.182Z,23.39
2018-06-11T18:13:04.206Z,23.24
2018-06-11T18:14:04.196Z,23.20
2018-06-11T18:15:04.201Z,23.21
2018-06-11T18:16:04.210Z,23.13
2018-06-11T18:17:04.217Z,23.27
2018-06-11T18:18:04.227Z,23.24
2018-06-11T18:19:04.223Z,23.23
2018-06-11T18:20:04.242Z,23.18
2018-06-11T18:21:04.245Z,23.18
2018-06-11T18:22:04.254Z,23.21
2018-06-11T18:23:04.251Z,23.24
2018-06-11T18:24:04.265Z,23.31
2018-06-11T18:25:04.272Z,23.23
2018-06-11T18:26:04.279Z,23.12
2018-06-11T18:27:04.283Z,23.20
2018-06-11T18:28:04.291Z,23.23
2018-06-11T18:29:04.298Z,23.20
2018-06-11T18:30:04.303Z,23.21
2018-06-11T18:31:04.312Z,23.17
2018-06-11T18:32:04.317Z,23.18
2018-06-11T18:33:04.320Z,23.23
2018-06-11T18:34:04.379Z,23.15
2018-06-11T18:35:04.334Z,23.20
2018-06-11T18:36:04.345Z,23.20
2018-06-11T18:37:04.351Z,23.15
2018-06-11T18:38:04.360Z,23.13
2018-06-11T18:39:04.364Z,23.09
2018-06-11T18:40:04.389Z,23.00
2018-06-11T18:41:04.383Z,22.98
2018-06-11T18:42:04.469Z,23.00
2018-06-11T18:43:04.399Z,22.90
2018-06-11T18:44:04.397Z,22.91
2018-06-11T18:45:04.397Z,22.90
2018-06-11T18:46:04.412Z,22.84
2018-06-11T18:47:04.417Z,22.84
2018-06-11T18:48:04.420Z,22.84
2018-06-11T18:49:04.431Z,22.70
2018-06-11T18:50:04.431Z,22.81
2018-06-11T18:51:04.439Z,22.72
2018-06-11T18:52:04.451Z,22.87
2018-06-11T18:53:04.450Z,22.80
2018-06-11T18:54:04.460Z,22.72
2018-06-11T18:55:04.464Z,22.76
2018-06-11T18:56:04.473Z,22.76
2018-06-11T18:57:04.483Z,22.62
2018-06-11T18:58:04.487Z,22.66
2018-06-11T18:59:04.493Z,22.54
2018-06-11T19:00:04.502Z,22.55
2018-06-11T19:01:04.506Z,22.59
2018-06-11T19:02:04.514Z,22.45
2018-06-11T19:03:04.518Z,22.53
2018-06-11T19:04:04.527Z,22.44
2018-06-11T19:05:04.532Z,22.53
2018-06-11T19:06:04.541Z,22.43
2018-06-11T19:07:04.544Z,22.38
2018-06-11T19:08:04.547Z,22.44
2018-06-11T19:09:04.556Z,22.48
2018-06-11T19:10:04.566Z,22.51
2018-06-11T19:11:04.563Z,22.44
2018-06-11T19:12:04.575Z,22.44
2018-06-11T19:13:04.582Z,22.36
2018-06-11T19:14:04.588Z,22.36
2018-06-11T19:15:04.593Z,22.41
2018-06-11T19:16:04.596Z,22.32
2018-06-11T19:17:04.605Z,22.35
2018-06-11T19:18:04.611Z,22.30
2018-06-11T19:19:04.644Z,22.26
2018-06-11T19:20:04.628Z,22.28
2018-06-11T19:21:04.628Z,22.23
2018-06-11T19:22:04.636Z,22.18
2018-06-11T19:23:04.640Z,22.22
2018-06-11T19:24:04.645Z,22.17
2018-06-11T19:25:04.653Z,22.20
2018-06-11T19:26:04.660Z,22.14
2018-06-11T19:27:04.663Z,22.17
2018-06-11T19:28:04.669Z,22.14
2018-06-11T19:29:04.676Z,22.15
2018-06-11T19:30:04.676Z,22.20
2018-06-11T19:31:04.687Z,22.18
2018-06-11T19:32:04.715Z,22.17
2018-06-11T19:33:04.757Z,22.11
2018-06-11T19:34:04.705Z,22.07
2018-06-11T19:35:04.782Z,22.13
2018-06-11T19:36:04.711Z,22.10
2018-06-11T19:37:04.722Z,22.00
2018-06-11T19:38:04.724Z,21.99
2018-06-11T19:39:04.734Z,21.95
2018-06-11T19:40:04.737Z,21.92
2018-06-11T19:41:04.747Z,22.00
2018-06-11T19:42:04.750Z,21.99
2018-06-11T19:43:04.757Z,21.95
2018-06-11T19:44:04.766Z,22.02
2018-06-11T19:45:04.770Z,22.08
2018-06-11T19:46:04.776Z,21.99
2018-06-11T19:47:04.778Z,22.04
2018-06-11T19:48:04.783Z,21.96
2018-06-11T19:49:04.791Z,22.10
2018-06-11T19:50:04.890Z,22.14
2018-06-11T19:51:04.835Z,22.10
2018-06-11T19:52:04.807Z,22.11
2018-06-11T19:53:04.812Z,22.11
2018-06-11T19:54:04.818Z,22.22
2018-06-11T19:55:04.825Z,22.22
2018-06-11T19:56:04.840Z,22.20
2018-06-11T19:57:04.837Z,22.20
2018-06-11T19:58:04.841Z,22.23